Time,TemperatureF,DewpointF,PressureIn,WindDirection,WindDirectionDegrees,WindSpeedMPH,WindSpeedGustMPH,Humidity,HourlyPrecipIn,Conditions,Clouds,dailyrainin,SoftwareType,DateUTC
2013-03-23 00:00:00,47.0,37.0,-100.00,North,-999,-999.0,-999.0,68,0.00,,,-99.99,,2013-03-23 07:00:00,
2013-03-23 00:22:00,47.0,37.0,-100.00,North,-999,-999.0,-999.0,68,0.00,,,-99.99,,2013-03-23 07:22:00,
2013-03-23 00:33:00,47.0,37.0,-100.00,North,-999,-999.0,-999.0,68,0.00,,,-99.99,,2013-03-23 07:33:00,
2013-03-23 00:42:00,47.0,37.0,-100.00,North,-999,-999.0,-999.0,68,0.00,,,-99.99,,2013-03-23 07:42:00,
2013-03-23 00:52:00,47.0,37.0,-100.00,North,-999,-999.0,-999.0,68,0.00,,,-99.99,,2013-03-23 07:52:00,
2013-03-23 02:00:00,43.0,37.0,-100.00,North,-999,-999.0,-999.0,76,0.00,,,-99.99,,2013-03-23 09:00:00,
2013-03-23 02:22:00,43.0,37.0,-100.00,North,-999,-999.0,-999.0,76,0.00,,,-99.99,,2013-03-23 09:22:00,
2013-03-23 02:33:00,43.0,37.0,-100.00,North,-999,-999.0,-999.0,76,0.00,,,-99.99,,2013-03-23 09:33:00,
2013-03-23 02:43:00,43.0,37.0,-100.00,North,-999,-999.0,-999.0,76,0.00,,,-99.99,,2013-03-23 09:43:00,
2013-03-23 02:53:00,43.0,37.0,-100.00,North,-999,-999.0,-999.0,76,0.00,,,-99.99,,2013-03-23 09:53:00,
2013-03-23 03:00:00,43.0,36.0,-100.00,North,-999,-999.0,-999.0,77,0.00,,,-99.99,,2013-03-23 10:00:00,
2013-03-23 03:24:00,43.0,36.0,-100.00,North,-999,-999.0,-999.0,77,0.00,,,-99.99,,2013-03-23 10:24:00,
2013-03-23 03:34:00,43.0,36.0,-100.00,North,-999,-999.0,-999.0,77,0.00,,,-99.99,,2013-03-23 10:34:00,
2013-03-23 03:43:00,43.0,36.0,-100.00,North,-999,-999.0,-999.0,77,0.00,,,-99.99,,2013-03-23 10:43:00,
2013-03-23 03:52:00,43.0,36.0,-100.00,North,-999,-999.0,-999.0,77,0.00,,,-99.99,,2013-03-23 10:52:00,
2013-03-23 04:00:00,41.0,36.0,-100.00,North,-999,-999.0,-999.0,81,0.00,,,-99.99,,2013-03-23 11:00:00,
2013-03-23 04:22:00,41.0,36.0,-100.00,North,-999,-999.0,-999.0,81,0.00,,,-99.99,,2013-03-23 11:22:00,
2013-03-23 04:32:00,41.0,36.0,-100.00,North,-999,-999.0,-999.0,81,0.00,,,-99.99,,2013-03-23 11:32:00,
2013-03-23 04:42:00,41.0,36.0,-100.00,North,-999,-999.0,-999.0,81,0.00,,,-99.99,,2013-03-23 11:42:00,
2013-03-23 04:52:00,41.0,36.0,-100.00,North,-999,-999.0,-999.0,81,0.00,,,-99.99,,2013-03-23 11:52:00,
2013-03-23 05:00:00,41.0,36.0,-100.00,North,-999,-999.0,-999.0,82,0.00,,,-99.99,,2013-03-23 12:00:00,
2013-03-23 05:22:00,41.0,36.0,-100.00,North,-999,-999.0,-999.0,82,0.00,,,-99.99,,2013-03-23 12:22:00,
2013-03-23 05:33:00,41.0,36.0,-100.00,North,-999,-999.0,-999.0,82,0.00,,,-99.99,,2013-03-23 12:33:00,
2013-03-23 05:43:00,41.0,36.0,-100.00,North,-999,-999.0,-999.0,82,0.00,,,-99.99,,2013-03-23 12:43:00,
2013-03-23 05:53:00,41.0,36.0,-100.00,North,-999,-999.0,-999.0,82,0.00,,,-99.99,,2013-03-23 12:53:00,
2013-03-23 06:00:00,40.0,36.0,-100.00,North,-999,-999.0,-999.0,83,0.00,,,-99.99,,2013-03-23 13:00:00,
2013-03-23 06:23:00,40.0,36.0,-100.00,North,-999,-999.0,-999.0,83,0.00,,,-99.99,,2013-03-23 13:23:00,
2013-03-23 06:33:00,40.0,36.0,-100.00,North,-999,-999.0,-999.0,83,0.00,,,-99.99,,2013-03-23 13:33:00,
2013-03-23 06:43:00,40.0,36.0,-100.00,North,-999,-999.0,-999.0,83,0.00,,,-99.99,,2013-03-23 13:43:00,
2013-03-23 06:53:00,40.0,36.0,-100.00,North,-999,-999.0,-999.0,83,0.00,,,-99.99,,2013-03-23 13:53:00,
2013-03-23 07:00:00,39.0,35.0,-100.00,North,-999,-999.0,-999.0,86,0.00,,,-99.99,,2013-03-23 14:00:00,
2013-03-23 07:23:00,39.0,35.0,-100.00,North,-999,-999.0,-999.0,86,0.00,,,-99.99,,2013-03-23 14:23:00,
2013-03-23 07:33:00,39.0,35.0,-100.00,North,-999,-999.0,-999.0,86,0.00,,,-99.99,,2013-03-23 14:33:00,
2013-03-23 07:43:00,39.0,35.0,-100.00,North,-999,-999.0,-999.0,86,0.00,,,-99.99,,2013-03-23 14:43:00,
2013-03-23 07:52:00,39.0,35.0,-100.00,North,-999,-999.0,-999.0,86,0.00,,,-99.99,,2013-03-23 14:52:00,
2013-03-23 08:00:00,42.0,36.0,-100.00,North,-999,-999.0,-999.0,81,0.00,,,-99.99,,2013-03-23 15:00:00,
2013-03-23 08:22:00,42.0,36.0,-100.00,North,-999,-999.0,-999.0,81,0.00,,,-99.99,,2013-03-23 15:22:00,
2013-03-23 08:34:00,42.0,36.0,-100.00,North,-999,-999.0,-999.0,81,0.00,,,-99.99,,2013-03-23 15:34:00,
2013-03-23 08:44:00,42.0,36.0,-100.00,North,-999,-999.0,-999.0,81,0.00,,,-99.99,,2013-03-23 15:44:00,
2013-03-23 08:53:00,42.0,36.0,-100.00,North,-999,-999.0,-999.0,81,0.00,,,-99.99,,2013-03-23 15:53:00,
2013-03-23 09:00:00,47.0,39.0,-100.00,North,-999,-999.0,-999.0,73,0.00,,,-99.99,,2013-03-23 16:00:00,
2013-03-23 09:23:00,47.0,39.0,-100.00,North,-999,-999.0,-999.0,73,0.00,,,-99.99,,2013-03-23 16:23:00,
2013-03-23 09:33:00,47.0,39.0,-100.00,North,-999,-999.0,-999.0,73,0.00,,,-99.99,,2013-03-23 16:33:00,
2013-03-23 09:43:00,47.0,39.0,-100.00,North,-999,-999.0,-999.0,73,0.00,,,-99.99,,2013-03-23 16:43:00,
2013-03-23 09:53:00,47.0,39.0,-100.00,North,-999,-999.0,-999.0,73,0.00,,,-99.99,,2013-03-23 16:53:00,
2013-03-23 10:00:00,53.0,40.0,-100.00,North,-999,-999.0,-999.0,61,0.00,,,-99.99,,2013-03-23 17:00:00,
2013-03-23 10:23:00,53.0,40.0,-100.00,North,-999,-999.0,-999.0,61,0.00,,,-99.99,,2013-03-23 17:23:00,
2013-03-23 10:33:00,53.0,40.0,-100.00,North,-999,-999.0,-999.0,61,0.00,,,-99.99,,2013-03-23 17:33:00,
2013-03-23 10:43:00,53.0,40.0,-100.00,North,-999,-999.0,-999.0,61,0.00,,,-99.99,,2013-03-23 17:43:00,
2013-03-23 10:52:00,53.0,40.0,-100.00,North,-999,-999.0,-999.0,61,0.00,,,-99.99,,2013-03-23 17:52:00,
2013-03-23 11:00:00,56.0,39.0,-100.00,North,-999,-999.0,-999.0,52,0.00,,,-99.99,,2013-03-23 18:00:00,
2013-03-23 11:23:00,56.0,39.0,-100.00,North,-999,-999.0,-999.0,52,0.00,,,-99.99,,2013-03-23 18:23:00,
2013-03-23 11:32:00,56.0,39.0,-100.00,North,-999,-999.0,-999.0,52,0.00,,,-99.99,,2013-03-23 18:32:00,
2013-03-23 11:43:00,56.0,39.0,-100.00,North,-999,-999.0,-999.0,52,0.00,,,-99.99,,2013-03-23 18:43:00,
2013-03-23 11:53:00,56.0,39.0,-100.00,North,-999,-999.0,-999.0,52,0.00,,,-99.99,,2013-03-23 18:53:00,
2013-03-23 12:00:00,62.0,38.0,-100.00,North,-999,-999.0,-999.0,41,0.00,,,-99.99,,2013-03-23 19:00:00,
2013-03-23 12:23:00,62.0,38.0,-100.00,North,-999,-999.0,-999.0,41,0.00,,,-99.99,,2013-03-23 19:23:00,
2013-03-23 12:33:00,62.0,38.0,-100.00,North,-999,-999.0,-999.0,41,0.00,,,-99.99,,2013-03-23 19:33:00,
2013-03-23 12:43:00,62.0,38.0,-100.00,North,-999,-999.0,-999.0,41,0.00,,,-99.99,,2013-03-23 19:43:00,
2013-03-23 12:53:00,62.0,38.0,-100.00,North,-999,-999.0,-999.0,41,0.00,,,-99.99,,2013-03-23 19:53:00,
2013-03-23 13:00:00,64.0,40.0,-100.00,North,-999,-999.0,-999.0,41,0.00,,,-99.99,,2013-03-23 20:00:00,
2013-03-23 13:23:00,64.0,40.0,-100.00,North,-999,-999.0,-999.0,41,0.00,,,-99.99,,2013-03-23 20:23:00,
2013-03-23 13:32:00,64.0,40.0,-100.00,North,-999,-999.0,-999.0,41,0.00,,,-99.99,,2013-03-23 20:32:00,
2013-03-23 13:43:00,64.0,40.0,-100.00,North,-999,-999.0,-999.0,41,0.00,,,-99.99,,2013-03-23 20:43:00,
2013-03-23 13:53:00,64.0,40.0,-100.00,North,-999,-999.0,-999.0,41,0.00,,,-99.99,,2013-03-23 20:53:00,
2013-03-23 14:00:00,67.0,37.0,-100.00,North,-999,-999.0,-999.0,33,0.00,,,-99.99,,2013-03-23 21:00:00,
2013-03-23 14:23:00,67.0,37.0,-100.00,North,-999,-999.0,-999.0,33,0.00,,,-99.99,,2013-03-23 21:23:00,
2013-03-23 14:33:00,67.0,37.0,-100.00,North,-999,-999.0,-999.0,33,0.00,,,-99.99,,2013-03-23 21:33:00,
2013-03-23 14:43:00,67.0,37.0,-100.00,North,-999,-999.0,-999.0,33,0.00,,,-99.99,,2013-03-23 21:43:00,
2013-03-23 14:53:00,67.0,37.0,-100.00,North,-999,-999.0,-999.0,33,0.00,,,-99.99,,2013-03-23 21:53:00,
2013-03-23 15:00:00,69.0,36.0,-100.00,North,-999,-999.0,-999.0,29,0.00,,,-99.99,,2013-03-23 22:00:00,
2013-03-23 15:23:00,69.0,36.0,-100.00,North,-999,-999.0,-999.0,29,0.00,,,-99.99,,2013-03-23 22:23:00,
2013-03-23 15:33:00,69.0,36.0,-100.00,North,-999,-999.0,-999.0,29,0.00,,,-99.99,,2013-03-23 22:33:00,
2013-03-23 15:42:00,69.0,36.0,-100.00,North,-999,-999.0,-999.0,29,0.00,,,-99.99,,2013-03-23 22:42:00,
2013-03-23 15:53:00,69.0,36.0,-100.00,North,-999,-999.0,-999.0,29,0.00,,,-99.99,,2013-03-23 22:53:00,
2013-03-23 16:00:00,71.0,38.0,-100.00,North,-999,-999.0,-999.0,30,0.00,,,-99.99,,2013-03-23 23:00:00,
2013-03-23 16:23:00,71.0,38.0,-100.00,North,-999,-999.0,-999.0,30,0.00,,,-99.99,,2013-03-23 23:23:00,
2013-03-23 16:33:00,71.0,38.0,-100.00,North,-999,-999.0,-999.0,30,0.00,,,-99.99,,2013-03-23 23:33:00,
2013-03-23 16:43:00,71.0,38.0,-100.00,North,-999,-999.0,-999.0,30,0.00,,,-99.99,,2013-03-23 23:43:00,
2013-03-23 16:52:00,71.0,38.0,-100.00,North,-999,-999.0,-999.0,30,0.00,,,-99.99,,2013-03-23 23:52:00,
2013-03-23 17:00:00,67.0,41.0,-100.00,North,-999,-999.0,-999.0,38,0.00,,,-99.99,,2013-03-24 00:00:00,
2013-03-23 17:23:00,67.0,41.0,-100.00,North,-999,-999.0,-999.0,38,0.00,,,-99.99,,2013-03-24 00:23:00,
2013-03-23 17:33:00,67.0,41.0,-100.00,North,-999,-999.0,-999.0,38,0.00,,,-99.99,,2013-03-24 00:33:00,
2013-03-23 17:42:00,67.0,41.0,-100.00,North,-999,-999.0,-999.0,38,0.00,,,-99.99,,2013-03-24 00:42:00,
2013-03-23 17:52:00,67.0,41.0,-100.00,North,-999,-999.0,-999.0,38,0.00,,,-99.99,,2013-03-24 00:52:00,
2013-03-23 18:00:00,66.0,41.0,-100.00,North,-999,-999.0,-999.0,40,0.00,,,-99.99,,2013-03-24 01:00:00,
2013-03-23 18:22:00,66.0,41.0,-100.00,North,-999,-999.0,-999.0,40,0.00,,,-99.99,,2013-03-24 01:22:00,
2013-03-23 18:33:00,66.0,41.0,-100.00,North,-999,-999.0,-999.0,40,0.00,,,-99.99,,2013-03-24 01:33:00,
2013-03-23 18:43:00,66.0,41.0,-100.00,North,-999,-999.0,-999.0,40,0.00,,,-99.99,,2013-03-24 01:43:00,
2013-03-23 18:53:00,66.0,41.0,-100.00,North,-999,-999.0,-999.0,40,0.00,,,-99.99,,2013-03-24 01:53:00,
2013-03-23 19:00:00,64.0,40.0,-100.00,North,-999,-999.0,-999.0,42,0.00,,,-99.99,,2013-03-24 02:00:00,
2013-03-23 19:22:00,64.0,40.0,-100.00,North,-999,-999.0,-999.0,42,0.00,,,-99.99,,2013-03-24 02:22:00,
2013-03-23 19:32:00,64.0,40.0,-100.00,North,-999,-999.0,-999.0,42,0.00,,,-99.99,,2013-03-24 02:32:00,
2013-03-23 19:42:00,64.0,40.0,-100.00,North,-999,-999.0,-999.0,42,0.00,,,-99.99,,2013-03-24 02:42:00,
2013-03-23 19:52:00,64.0,40.0,-100.00,North,-999,-999.0,-999.0,42,0.00,,,-99.99,,2013-03-24 02:52:00,
2013-03-23 20:00:00,59.0,44.0,-100.00,North,-999,-999.0,-999.0,56,0.00,,,-99.99,,2013-03-24 03:00:00,
2013-03-23 20:23:00,59.0,44.0,-100.00,North,-999,-999.0,-999.0,56,0.00,,,-99.99,,2013-03-24 03:23:00,
2013-03-23 20:33:00,59.0,44.0,-100.00,North,-999,-999.0,-999.0,56,0.00,,,-99.99,,2013-03-24 03:33:00,
2013-03-23 20:43:00,59.0,44.0,-100.00,North,-999,-999.0,-999.0,56,0.00,,,-99.99,,2013-03-24 03:43:00,
2013-03-23 20:53:00,59.0,44.0,-100.00,North,-999,-999.0,-999.0,56,0.00,,,-99.99,,2013-03-24 03:53:00,
2013-03-23 21:00:00,55.0,43.0,-100.00,North,-999,-999.0,-999.0,63,0.00,,,-99.99,,2013-03-24 04:00:00,
2013-03-23 21:23:00,55.0,43.0,-100.00,North,-999,-999.0,-999.0,63,0.00,,,-99.99,,2013-03-24 04:23:00,
2013-03-23 21:33:00,55.0,43.0,-100.00,North,-999,-999.0,-999.0,63,0.00,,,-99.99,,2013-03-24 04:33:00,
2013-03-23 21:43:00,55.0,43.0,-100.00,North,-999,-999.0,-999.0,63,0.00,,,-99.99,,2013-03-24 04:43:00,
2013-03-23 21:53:00,55.0,43.0,-100.00,North,-999,-999.0,-999.0,63,0.00,,,-99.99,,2013-03-24 04:53:00,
2013-03-23 22:00:00,51.0,42.0,-100.00,North,-999,-999.0,-999.0,71,0.00,,,-99.99,,2013-03-24 05:00:00,
2013-03-23 22:23:00,51.0,42.0,-100.00,North,-999,-999.0,-999.0,71,0.00,,,-99.99,,2013-03-24 05:23:00,
2013-03-23 22:32:00,51.0,42.0,-100.00,North,-999,-999.0,-999.0,71,0.00,,,-99.99,,2013-03-24 05:32:00,
2013-03-23 22:43:00,51.0,42.0,-100.00,North,-999,-999.0,-999.0,71,0.00,,,-99.99,,2013-03-24 05:43:00,
2013-03-23 22:52:00,51.0,42.0,-100.00,North,-999,-999.0,-999.0,71,0.00,,,-99.99,,2013-03-24 05:52:00,
2013-03-23 23:00:00,49.0,42.0,-100.00,North,-999,-999.0,-999.0,77,0.00,,,-99.99,,2013-03-24 06:00:00,
2013-03-23 23:22:00,49.0,42.0,-100.00,North,-999,-999.0,-999.0,77,0.00,,,-99.99,,2013-03-24 06:22:00,
2013-03-23 23:32:00,49.0,42.0,-100.00,North,-999,-999.0,-999.0,77,0.00,,,-99.99,,2013-03-24 06:32:00,
2013-03-23 23:42:00,49.0,42.0,-100.00,North,-999,-999.0,-999.0,77,0.00,,,-99.99,,2013-03-24 06:42:00,
2013-03-23 23:52:00,49.0,42.0,-100.00,North,-999,-999.0,-999.0,77,0.00,,,-99.99,,2013-03-24 06:52:00,